sensor_id;sensor_type;location;lat;lon;timestamp;P1;durP1;ratioP1;P2;durP2;ratioP2
80313;SDS011;69628;47.516;18.828;2023-05-06T00:01:03;5.78;;;4.20;;
80313;SDS011;69628;47.516;18.828;2023-05-06T00:02:03;8.65;;;4.55;;
80313;SDS011;69628;47.516;18.828;2023-05-06T00:03:04;6.78;;;4.25;;
80313;SDS011;69628;47.516;18.828;2023-05-06T00:04:05;8.00;;;4.80;;
80313;SDS011;69628;47.516;18.828;2023-05-06T00:05:06;6.03;;;4.53;;
80313;SDS011;69628;47.516;18.828;2023-05-06T00:06:06;7.90;;;4.65;;
80313;SDS011;69628;47.516;18.828;2023-05-06T00:07:08;8.68;;;5.00;;
80313;SDS011;69628;47.516;18.828;2023-05-06T00:08:08;8.20;;;4.70;;
80313;SDS011;69628;47.516;18.828;2023-05-06T00:09:09;8.43;;;4.53;;
80313;SDS011;69628;47.516;18.828;2023-05-06T00:10:09;7.45;;;4.63;;
80313;SDS011;69628;47.516;18.828;2023-05-06T00:11:10;6.68;;;4.78;;
80313;SDS011;69628;47.516;18.828;2023-05-06T00:12:10;6.50;;;4.43;;
80313;SDS011;69628;47.516;18.828;2023-05-06T00:13:11;6.00;;;4.43;;
80313;SDS011;69628;47.516;18.828;2023-05-06T00:14:21;5.93;;;4.25;;
80313;SDS011;69628;47.516;18.828;2023-05-06T00:15:21;7.40;;;4.45;;
80313;SDS011;69628;47.516;18.828;2023-05-06T00:16:22;7.95;;;4.68;;
80313;SDS011;69628;47.516;18.828;2023-05-06T00:17:22;6.00;;;4.30;;
80313;SDS011;69628;47.516;18.828;2023-05-06T00:18:23;8.23;;;4.50;;
80313;SDS011;69628;47.516;18.828;2023-05-06T00:19:23;10.52;;;4.47;;
80313;SDS011;69628;47.516;18.828;2023-05-06T00:20:23;7.35;;;4.38;;
80313;SDS011;69628;47.516;18.828;2023-05-06T00:21:24;7.40;;;4.55;;
80313;SDS011;69628;47.516;18.828;2023-05-06T00:22:26;7.60;;;5.10;;
80313;SDS011;69628;47.516;18.828;2023-05-06T00:23:26;7.45;;;4.80;;
80313;SDS011;69628;47.516;18.828;2023-05-06T00:24:26;6.88;;;4.35;;
80313;SDS011;69628;47.516;18.828;2023-05-06T00:25:27;6.35;;;4.30;;
80313;SDS011;69628;47.516;18.828;2023-05-06T00:26:27;6.95;;;4.53;;
80313;SDS011;69628;47.516;18.828;2023-05-06T00:27:37;7.35;;;5.10;;
80313;SDS011;69628;47.516;18.828;2023-05-06T00:28:37;8.13;;;4.97;;
80313;SDS011;69628;47.516;18.828;2023-05-06T00:29:38;8.57;;;5.00;;
80313;SDS011;69628;47.516;18.828;2023-05-06T00:30:38;6.63;;;4.88;;
80313;SDS011;69628;47.516;18.828;2023-05-06T00:31:39;7.85;;;4.93;;
80313;SDS011;69628;47.516;18.828;2023-05-06T00:32:39;9.45;;;5.18;;
80313;SDS011;69628;47.516;18.828;2023-05-06T00:33:40;11.48;;;5.15;;
80313;SDS011;69628;47.516;18.828;2023-05-06T00:34:41;8.65;;;5.22;;
80313;SDS011;69628;47.516;18.828;2023-05-06T00:35:41;11.80;;;5.18;;
80313;SDS011;69628;47.516;18.828;2023-05-06T00:36:42;7.00;;;4.40;;
80313;SDS011;69628;47.516;18.828;2023-05-06T00:37:44;12.85;;;5.88;;
80313;SDS011;69628;47.516;18.828;2023-05-06T00:38:45;11.90;;;5.63;;
80313;SDS011;69628;47.516;18.828;2023-05-06T00:39:46;10.32;;;5.63;;
80313;SDS011;69628;47.516;18.828;2023-05-06T00:40:52;10.35;;;5.78;;
80313;SDS011;69628;47.516;18.828;2023-05-06T00:41:52;14.40;;;5.63;;
80313;SDS011;69628;47.516;18.828;2023-05-06T00:42:53;9.88;;;5.22;;
80313;SDS011;69628;47.516;18.828;2023-05-06T00:43:53;14.63;;;5.85;;
80313;SDS011;69628;47.516;18.828;2023-05-06T00:44:53;12.70;;;6.50;;
80313;SDS011;69628;47.516;18.828;2023-05-06T00:45:54;11.32;;;6.40;;
80313;SDS011;69628;47.516;18.828;2023-05-06T00:46:55;15.50;;;6.35;;
80313;SDS011;69628;47.516;18.828;2023-05-06T00:47:56;13.95;;;6.45;;
80313;SDS011;69628;47.516;18.828;2023-05-06T00:48:56;15.60;;;6.53;;
80313;SDS011;69628;47.516;18.828;2023-05-06T00:49:57;16.40;;;6.53;;
80313;SDS011;69628;47.516;18.828;2023-05-06T00:50:57;15.95;;;6.47;;
80313;SDS011;69628;47.516;18.828;2023-05-06T00:51:58;15.35;;;6.60;;
80313;SDS011;69628;47.516;18.828;2023-05-06T00:52:59;14.25;;;6.07;;
80313;SDS011;69628;47.516;18.828;2023-05-06T00:54:11;14.05;;;6.28;;
80313;SDS011;69628;47.516;18.828;2023-05-06T00:55:11;14.55;;;6.80;;
80313;SDS011;69628;47.516;18.828;2023-05-06T00:56:12;20.75;;;6.63;;
80313;SDS011;69628;47.516;18.828;2023-05-06T00:57:12;14.32;;;6.35;;
80313;SDS011;69628;47.516;18.828;2023-05-06T00:58:13;17.65;;;6.72;;
80313;SDS011;69628;47.516;18.828;2023-05-06T00:59:13;17.10;;;6.28;;
80313;SDS011;69628;47.516;18.828;2023-05-06T01:00:14;20.52;;;6.47;;
80313;SDS011;69628;47.516;18.828;2023-05-06T01:01:15;16.27;;;6.20;;
80313;SDS011;69628;47.516;18.828;2023-05-06T01:02:16;14.48;;;6.50;;
80313;SDS011;69628;47.516;18.828;2023-05-06T01:03:16;15.75;;;6.32;;
80313;SDS011;69628;47.516;18.828;2023-05-06T01:04:17;27.60;;;7.55;;
80313;SDS011;69628;47.516;18.828;2023-05-06T01:05:19;18.58;;;6.82;;
80313;SDS011;69628;47.516;18.828;2023-05-06T01:07:34;19.30;;;6.57;;
80313;SDS011;69628;47.516;18.828;2023-05-06T01:08:36;15.60;;;6.32;;
80313;SDS011;69628;47.516;18.828;2023-05-06T01:09:47;14.35;;;5.55;;
80313;SDS011;69628;47.516;18.828;2023-05-06T01:11:17;16.33;;;6.38;;
80313;SDS011;69628;47.516;18.828;2023-05-06T01:13:51;15.70;;;6.60;;
80313;SDS011;69628;47.516;18.828;2023-05-06T01:15:30;17.77;;;6.55;;
80313;SDS011;69628;47.516;18.828;2023-05-06T01:16:33;11.85;;;6.13;;
80313;SDS011;69628;47.516;18.828;2023-05-06T01:17:38;17.63;;;6.25;;
80313;SDS011;69628;47.516;18.828;2023-05-06T01:18:43;13.95;;;5.53;;
80313;SDS011;69628;47.516;18.828;2023-05-06T01:19:44;19.10;;;6.60;;
80313;SDS011;69628;47.516;18.828;2023-05-06T01:20:52;16.35;;;5.60;;
80313;SDS011;69628;47.516;18.828;2023-05-06T01:21:53;19.02;;;6.50;;
80313;SDS011;69628;47.516;18.828;2023-05-06T01:22:55;14.20;;;6.30;;
80313;SDS011;69628;47.516;18.828;2023-05-06T01:23:56;12.60;;;6.00;;
80313;SDS011;69628;47.516;18.828;2023-05-06T01:24:57;12.32;;;5.88;;
80313;SDS011;69628;47.516;18.828;2023-05-06T01:25:57;11.23;;;5.88;;
80313;SDS011;69628;47.516;18.828;2023-05-06T01:26:58;14.48;;;6.18;;
80313;SDS011;69628;47.516;18.828;2023-05-06T01:27:58;9.60;;;5.68;;
80313;SDS011;69628;47.516;18.828;2023-05-06T01:28:58;15.50;;;6.07;;
80313;SDS011;69628;47.516;18.828;2023-05-06T01:30:00;11.55;;;5.70;;
80313;SDS011;69628;47.516;18.828;2023-05-06T01:31:01;11.60;;;5.53;;
80313;SDS011;69628;47.516;18.828;2023-05-06T01:32:12;8.50;;;5.57;;
80313;SDS011;69628;47.516;18.828;2023-05-06T01:35:31;10.38;;;5.82;;
80313;SDS011;69628;47.516;18.828;2023-05-06T01:36:12;10.70;;;5.60;;
80313;SDS011;69628;47.516;18.828;2023-05-06T01:39:51;12.38;;;6.10;;
80313;SDS011;69628;47.516;18.828;2023-05-06T01:40:54;11.60;;;5.50;;
80313;SDS011;69628;47.516;18.828;2023-05-06T01:41:56;8.52;;;4.90;;
80313;SDS011;69628;47.516;18.828;2023-05-06T01:42:58;10.20;;;5.57;;
80313;SDS011;69628;47.516;18.828;2023-05-06T01:43:59;9.40;;;5.10;;
80313;SDS011;69628;47.516;18.828;2023-05-06T01:45:03;9.90;;;5.05;;
80313;SDS011;69628;47.516;18.828;2023-05-06T01:46:04;9.93;;;5.20;;
80313;SDS011;69628;47.516;18.828;2023-05-06T01:47:06;10.93;;;5.40;;
80313;SDS011;69628;47.516;18.828;2023-05-06T01:48:27;10.05;;;5.35;;
80313;SDS011;69628;47.516;18.828;2023-05-06T01:49:29;7.70;;;5.20;;
80313;SDS011;69628;47.516;18.828;2023-05-06T01:50:29;8.18;;;4.93;;
80313;SDS011;69628;47.516;18.828;2023-05-06T01:51:31;10.45;;;5.15;;
80313;SDS011;69628;47.516;18.828;2023-05-06T01:52:57;7.75;;;5.30;;
80313;SDS011;69628;47.516;18.828;2023-05-06T01:53:59;6.90;;;5.10;;
80313;SDS011;69628;47.516;18.828;2023-05-06T01:55:00;6.70;;;5.20;;
80313;SDS011;69628;47.516;18.828;2023-05-06T01:56:09;8.25;;;5.20;;
80313;SDS011;69628;47.516;18.828;2023-05-06T01:57:10;8.90;;;4.97;;
80313;SDS011;69628;47.516;18.828;2023-05-06T01:58:10;9.48;;;5.35;;
80313;SDS011;69628;47.516;18.828;2023-05-06T01:59:10;7.85;;;5.15;;
80313;SDS011;69628;47.516;18.828;2023-05-06T02:00:11;7.38;;;4.97;;
80313;SDS011;69628;47.516;18.828;2023-05-06T02:01:12;8.57;;;4.93;;
80313;SDS011;69628;47.516;18.828;2023-05-06T02:02:12;8.30;;;5.00;;
80313;SDS011;69628;47.516;18.828;2023-05-06T02:03:13;6.65;;;4.70;;
80313;SDS011;69628;47.516;18.828;2023-05-06T02:04:13;7.72;;;5.43;;
80313;SDS011;69628;47.516;18.828;2023-05-06T02:05:13;6.38;;;4.93;;
80313;SDS011;69628;47.516;18.828;2023-05-06T02:06:14;7.30;;;5.03;;
80313;SDS011;69628;47.516;18.828;2023-05-06T02:07:15;9.15;;;5.10;;
80313;SDS011;69628;47.516;18.828;2023-05-06T02:08:15;6.90;;;5.18;;
80313;SDS011;69628;47.516;18.828;2023-05-06T02:09:25;7.05;;;5.25;;
80313;SDS011;69628;47.516;18.828;2023-05-06T02:10:26;11.02;;;4.88;;
80313;SDS011;69628;47.516;18.828;2023-05-06T02:11:26;9.70;;;5.75;;
80313;SDS011;69628;47.516;18.828;2023-05-06T02:12:27;8.85;;;5.28;;
80313;SDS011;69628;47.516;18.828;2023-05-06T02:13:28;7.63;;;5.38;;
80313;SDS011;69628;47.516;18.828;2023-05-06T02:14:28;11.15;;;5.78;;
80313;SDS011;69628;47.516;18.828;2023-05-06T02:15:28;11.77;;;5.38;;
80313;SDS011;69628;47.516;18.828;2023-05-06T02:16:29;9.02;;;5.22;;
80313;SDS011;69628;47.516;18.828;2023-05-06T02:17:29;8.05;;;5.32;;
80313;SDS011;69628;47.516;18.828;2023-05-06T02:18:30;10.23;;;5.63;;
80313;SDS011;69628;47.516;18.828;2023-05-06T02:19:30;8.50;;;5.57;;
80313;SDS011;69628;47.516;18.828;2023-05-06T02:20:31;10.13;;;5.07;;
80313;SDS011;69628;47.516;18.828;2023-05-06T02:21:31;11.95;;;5.40;;
80313;SDS011;69628;47.516;18.828;2023-05-06T02:22:40;7.60;;;5.47;;
80313;SDS011;69628;47.516;18.828;2023-05-06T02:23:41;10.55;;;5.30;;
80313;SDS011;69628;47.516;18.828;2023-05-06T02:24:41;9.63;;;4.95;;
80313;SDS011;69628;47.516;18.828;2023-05-06T02:25:42;7.70;;;4.97;;
80313;SDS011;69628;47.516;18.828;2023-05-06T02:26:42;8.55;;;5.25;;
80313;SDS011;69628;47.516;18.828;2023-05-06T02:27:42;8.02;;;5.22;;
80313;SDS011;69628;47.516;18.828;2023-05-06T02:28:44;7.65;;;5.00;;
80313;SDS011;69628;47.516;18.828;2023-05-06T02:29:44;9.52;;;5.35;;
80313;SDS011;69628;47.516;18.828;2023-05-06T02:30:45;8.13;;;4.85;;
80313;SDS011;69628;47.516;18.828;2023-05-06T02:31:45;10.25;;;6.03;;
80313;SDS011;69628;47.516;18.828;2023-05-06T02:32:46;7.30;;;4.65;;
80313;SDS011;69628;47.516;18.828;2023-05-06T02:33:46;8.23;;;5.15;;
80313;SDS011;69628;47.516;18.828;2023-05-06T02:34:46;10.10;;;5.07;;
80313;SDS011;69628;47.516;18.828;2023-05-06T02:35:59;7.63;;;5.03;;
80313;SDS011;69628;47.516;18.828;2023-05-06T02:37:00;8.63;;;5.35;;
80313;SDS011;69628;47.516;18.828;2023-05-06T02:38:00;9.73;;;5.35;;
80313;SDS011;69628;47.516;18.828;2023-05-06T02:39:00;9.60;;;4.88;;
80313;SDS011;69628;47.516;18.828;2023-05-06T02:40:01;7.88;;;5.22;;
80313;SDS011;69628;47.516;18.828;2023-05-06T02:41:01;9.38;;;5.13;;
80313;SDS011;69628;47.516;18.828;2023-05-06T02:42:02;10.25;;;5.32;;
80313;SDS011;69628;47.516;18.828;2023-05-06T02:43:03;8.88;;;5.40;;
80313;SDS011;69628;47.516;18.828;2023-05-06T02:44:03;7.05;;;4.97;;
80313;SDS011;69628;47.516;18.828;2023-05-06T02:45:04;7.50;;;5.30;;
80313;SDS011;69628;47.516;18.828;2023-05-06T02:46:05;8.02;;;5.53;;
80313;SDS011;69628;47.516;18.828;2023-05-06T02:47:05;9.18;;;5.57;;
80313;SDS011;69628;47.516;18.828;2023-05-06T02:48:05;11.63;;;5.60;;
80313;SDS011;69628;47.516;18.828;2023-05-06T02:49:15;13.02;;;6.22;;
80313;SDS011;69628;47.516;18.828;2023-05-06T02:50:15;11.35;;;6.15;;
80313;SDS011;69628;47.516;18.828;2023-05-06T02:51:16;17.38;;;6.47;;
80313;SDS011;69628;47.516;18.828;2023-05-06T02:52:16;17.98;;;7.07;;
80313;SDS011;69628;47.516;18.828;2023-05-06T02:53:17;12.65;;;6.47;;
80313;SDS011;69628;47.516;18.828;2023-05-06T02:54:17;11.63;;;6.53;;
80313;SDS011;69628;47.516;18.828;2023-05-06T02:55:17;16.27;;;7.15;;
80313;SDS011;69628;47.516;18.828;2023-05-06T02:56:18;15.73;;;7.10;;
80313;SDS011;69628;47.516;18.828;2023-05-06T02:57:18;18.20;;;7.32;;
80313;SDS011;69628;47.516;18.828;2023-05-06T02:58:19;21.63;;;8.35;;
80313;SDS011;69628;47.516;18.828;2023-05-06T02:59:19;24.13;;;8.95;;
80313;SDS011;69628;47.516;18.828;2023-05-06T03:00:20;23.25;;;8.57;;
80313;SDS011;69628;47.516;18.828;2023-05-06T03:01:20;23.02;;;8.35;;
80313;SDS011;69628;47.516;18.828;2023-05-06T03:02:30;20.77;;;7.85;;
80313;SDS011;69628;47.516;18.828;2023-05-06T03:03:30;18.65;;;7.90;;
80313;SDS011;69628;47.516;18.828;2023-05-06T03:04:30;16.52;;;7.80;;
80313;SDS011;69628;47.516;18.828;2023-05-06T03:05:31;18.27;;;7.53;;
80313;SDS011;69628;47.516;18.828;2023-05-06T03:06:31;14.93;;;6.63;;
80313;SDS011;69628;47.516;18.828;2023-05-06T03:07:33;11.48;;;6.97;;
80313;SDS011;69628;47.516;18.828;2023-05-06T03:08:34;17.38;;;8.02;;
80313;SDS011;69628;47.516;18.828;2023-05-06T03:09:34;16.35;;;7.47;;
80313;SDS011;69628;47.516;18.828;2023-05-06T03:10:35;12.50;;;6.95;;
80313;SDS011;69628;47.516;18.828;2023-05-06T03:11:35;10.40;;;6.35;;
80313;SDS011;69628;47.516;18.828;2023-05-06T03:12:36;10.88;;;6.63;;
80313;SDS011;69628;47.516;18.828;2023-05-06T03:13:36;11.15;;;6.03;;
80313;SDS011;69628;47.516;18.828;2023-05-06T03:14:36;9.85;;;5.90;;
80313;SDS011;69628;47.516;18.828;2023-05-06T03:15:52;11.63;;;6.63;;
80313;SDS011;69628;47.516;18.828;2023-05-06T03:16:53;14.40;;;6.20;;
80313;SDS011;69628;47.516;18.828;2023-05-06T03:17:53;11.98;;;6.13;;
80313;SDS011;69628;47.516;18.828;2023-05-06T03:18:54;11.15;;;6.22;;
80313;SDS011;69628;47.516;18.828;2023-05-06T03:19:54;10.23;;;6.07;;
80313;SDS011;69628;47.516;18.828;2023-05-06T03:20:55;13.70;;;6.40;;
80313;SDS011;69628;47.516;18.828;2023-05-06T03:21:55;9.57;;;5.70;;
80313;SDS011;69628;47.516;18.828;2023-05-06T03:22:56;12.73;;;6.50;;
80313;SDS011;69628;47.516;18.828;2023-05-06T03:23:56;13.93;;;6.22;;
80313;SDS011;69628;47.516;18.828;2023-05-06T03:24:57;11.70;;;6.00;;
80313;SDS011;69628;47.516;18.828;2023-05-06T03:25:57;12.63;;;6.68;;
80313;SDS011;69628;47.516;18.828;2023-05-06T03:26:58;11.93;;;6.70;;
80313;SDS011;69628;47.516;18.828;2023-05-06T03:27:58;10.02;;;5.85;;
80313;SDS011;69628;47.516;18.828;2023-05-06T03:29:05;11.73;;;6.57;;
80313;SDS011;69628;47.516;18.828;2023-05-06T03:30:05;10.07;;;5.78;;
80313;SDS011;69628;47.516;18.828;2023-05-06T03:31:07;12.57;;;6.35;;
80313;SDS011;69628;47.516;18.828;2023-05-06T03:32:07;11.05;;;6.47;;
80313;SDS011;69628;47.516;18.828;2023-05-06T03:33:08;11.15;;;6.45;;
80313;SDS011;69628;47.516;18.828;2023-05-06T03:34:08;9.13;;;5.82;;
80313;SDS011;69628;47.516;18.828;2023-05-06T03:35:08;10.48;;;6.30;;
80313;SDS011;69628;47.516;18.828;2023-05-06T03:36:10;8.35;;;5.78;;
80313;SDS011;69628;47.516;18.828;2023-05-06T03:37:12;9.63;;;6.20;;
80313;SDS011;69628;47.516;18.828;2023-05-06T03:38:13;8.38;;;5.63;;
80313;SDS011;69628;47.516;18.828;2023-05-06T03:39:13;7.78;;;5.57;;
80313;SDS011;69628;47.516;18.828;2023-05-06T03:40:14;9.52;;;5.75;;
80313;SDS011;69628;47.516;18.828;2023-05-06T03:41:14;13.80;;;6.20;;
80313;SDS011;69628;47.516;18.828;2023-05-06T03:42:22;11.85;;;5.80;;
80313;SDS011;69628;47.516;18.828;2023-05-06T03:43:22;8.90;;;5.70;;
80313;SDS011;69628;47.516;18.828;2023-05-06T03:44:23;9.40;;;5.97;;
80313;SDS011;69628;47.516;18.828;2023-05-06T03:45:23;8.50;;;5.75;;
80313;SDS011;69628;47.516;18.828;2023-05-06T03:46:24;8.35;;;5.78;;
80313;SDS011;69628;47.516;18.828;2023-05-06T03:47:24;7.45;;;5.50;;
80313;SDS011;69628;47.516;18.828;2023-05-06T03:48:25;13.75;;;6.30;;
80313;SDS011;69628;47.516;18.828;2023-05-06T03:49:25;8.48;;;5.95;;
80313;SDS011;69628;47.516;18.828;2023-05-06T03:50:25;7.05;;;5.53;;
80313;SDS011;69628;47.516;18.828;2023-05-06T03:51:26;10.68;;;6.40;;
80313;SDS011;69628;47.516;18.828;2023-05-06T03:52:26;7.63;;;5.32;;
80313;SDS011;69628;47.516;18.828;2023-05-06T03:53:27;8.55;;;5.38;;
80313;SDS011;69628;47.516;18.828;2023-05-06T03:54:27;10.70;;;6.50;;
80313;SDS011;69628;47.516;18.828;2023-05-06T03:55:37;8.48;;;6.25;;
80313;SDS011;69628;47.516;18.828;2023-05-06T03:56:37;8.55;;;6.15;;
80313;SDS011;69628;47.516;18.828;2023-05-06T03:57:38;10.57;;;5.88;;
80313;SDS011;69628;47.516;18.828;2023-05-06T03:58:38;9.63;;;6.13;;
80313;SDS011;69628;47.516;18.828;2023-05-06T03:59:39;9.15;;;5.82;;
80313;SDS011;69628;47.516;18.828;2023-05-06T04:00:39;10.45;;;6.10;;
80313;SDS011;69628;47.516;18.828;2023-05-06T04:01:40;7.55;;;6.03;;
80313;SDS011;69628;47.516;18.828;2023-05-06T04:02:40;9.20;;;5.88;;
80313;SDS011;69628;47.516;18.828;2023-05-06T04:03:41;10.45;;;6.15;;
80313;SDS011;69628;47.516;18.828;2023-05-06T04:04:41;9.55;;;6.28;;
80313;SDS011;69628;47.516;18.828;2023-05-06T04:05:42;12.32;;;6.72;;
80313;SDS011;69628;47.516;18.828;2023-05-06T04:06:42;9.63;;;6.65;;
80313;SDS011;69628;47.516;18.828;2023-05-06T04:07:43;11.73;;;6.30;;
80313;SDS011;69628;47.516;18.828;2023-05-06T04:08:52;11.55;;;6.20;;
80313;SDS011;69628;47.516;18.828;2023-05-06T04:09:57;8.10;;;5.60;;
80313;SDS011;69628;47.516;18.828;2023-05-06T04:11:02;7.68;;;5.65;;
80313;SDS011;69628;47.516;18.828;2023-05-06T04:12:03;9.95;;;5.60;;
80313;SDS011;69628;47.516;18.828;2023-05-06T04:13:03;8.75;;;5.75;;
80313;SDS011;69628;47.516;18.828;2023-05-06T04:14:04;9.90;;;6.03;;
80313;SDS011;69628;47.516;18.828;2023-05-06T04:15:05;8.30;;;5.47;;
80313;SDS011;69628;47.516;18.828;2023-05-06T04:16:06;8.65;;;5.40;;
80313;SDS011;69628;47.516;18.828;2023-05-06T04:17:06;14.93;;;6.13;;
80313;SDS011;69628;47.516;18.828;2023-05-06T04:18:07;8.88;;;6.05;;
80313;SDS011;69628;47.516;18.828;2023-05-06T04:19:07;11.05;;;6.13;;
80313;SDS011;69628;47.516;18.828;2023-05-06T04:20:08;10.45;;;6.40;;
80313;SDS011;69628;47.516;18.828;2023-05-06T04:21:10;14.02;;;6.47;;
80313;SDS011;69628;47.516;18.828;2023-05-06T04:22:13;8.38;;;5.68;;
80313;SDS011;69628;47.516;18.828;2023-05-06T04:23:13;13.52;;;6.70;;
80313;SDS011;69628;47.516;18.828;2023-05-06T04:24:15;14.88;;;6.18;;
80313;SDS011;69628;47.516;18.828;2023-05-06T04:25:15;12.40;;;6.30;;
80313;SDS011;69628;47.516;18.828;2023-05-06T04:26:18;13.05;;;6.57;;
80313;SDS011;69628;47.516;18.828;2023-05-06T04:27:18;11.85;;;6.35;;
80313;SDS011;69628;47.516;18.828;2023-05-06T04:28:19;11.98;;;6.35;;
80313;SDS011;69628;47.516;18.828;2023-05-06T04:29:19;10.35;;;6.28;;
80313;SDS011;69628;47.516;18.828;2023-05-06T04:30:20;14.07;;;6.35;;
80313;SDS011;69628;47.516;18.828;2023-05-06T04:31:21;13.80;;;6.47;;
80313;SDS011;69628;47.516;18.828;2023-05-06T04:32:22;10.57;;;6.38;;
80313;SDS011;69628;47.516;18.828;2023-05-06T04:33:25;11.85;;;6.28;;
80313;SDS011;69628;47.516;18.828;2023-05-06T04:34:26;12.27;;;6.78;;
80313;SDS011;69628;47.516;18.828;2023-05-06T04:35:28;11.07;;;6.05;;
80313;SDS011;69628;47.516;18.828;2023-05-06T04:36:28;10.35;;;6.07;;
80313;SDS011;69628;47.516;18.828;2023-05-06T04:37:29;15.70;;;6.40;;
80313;SDS011;69628;47.516;18.828;2023-05-06T04:38:30;14.68;;;5.75;;
80313;SDS011;69628;47.516;18.828;2023-05-06T04:39:31;13.82;;;6.55;;
80313;SDS011;69628;47.516;18.828;2023-05-06T04:40:31;11.30;;;6.32;;
80313;SDS011;69628;47.516;18.828;2023-05-06T04:41:35;11.70;;;6.25;;
80313;SDS011;69628;47.516;18.828;2023-05-06T04:42:36;8.40;;;5.97;;
80313;SDS011;69628;47.516;18.828;2023-05-06T04:43:37;8.90;;;6.03;;
80313;SDS011;69628;47.516;18.828;2023-05-06T04:44:37;10.60;;;6.22;;
80313;SDS011;69628;47.516;18.828;2023-05-06T04:45:37;10.23;;;5.80;;
80313;SDS011;69628;47.516;18.828;2023-05-06T04:46:41;7.97;;;6.13;;
80313;SDS011;69628;47.516;18.828;2023-05-06T04:47:42;11.05;;;6.28;;
80313;SDS011;69628;47.516;18.828;2023-05-06T04:48:44;10.32;;;6.13;;
80313;SDS011;69628;47.516;18.828;2023-05-06T04:49:44;9.60;;;6.20;;
80313;SDS011;69628;47.516;18.828;2023-05-06T04:50:45;8.77;;;5.75;;
80313;SDS011;69628;47.516;18.828;2023-05-06T04:51:45;7.60;;;6.07;;
80313;SDS011;69628;47.516;18.828;2023-05-06T04:52:46;9.30;;;6.60;;
80313;SDS011;69628;47.516;18.828;2023-05-06T04:53:46;9.63;;;6.20;;
80313;SDS011;69628;47.516;18.828;2023-05-06T04:54:47;12.95;;;6.35;;
80313;SDS011;69628;47.516;18.828;2023-05-06T04:55:47;8.82;;;6.55;;
80313;SDS011;69628;47.516;18.828;2023-05-06T04:56:47;9.57;;;6.28;;
80313;SDS011;69628;47.516;18.828;2023-05-06T04:57:48;10.25;;;6.45;;
80313;SDS011;69628;47.516;18.828;2023-05-06T04:58:48;13.95;;;6.68;;
80313;SDS011;69628;47.516;18.828;2023-05-06T04:59:49;12.82;;;6.85;;
80313;SDS011;69628;47.516;18.828;2023-05-06T05:00:49;11.57;;;6.68;;
80313;SDS011;69628;47.516;18.828;2023-05-06T05:02:02;10.95;;;6.30;;
80313;SDS011;69628;47.516;18.828;2023-05-06T05:03:02;10.45;;;6.82;;
80313;SDS011;69628;47.516;18.828;2023-05-06T05:04:03;14.93;;;7.65;;
80313;SDS011;69628;47.516;18.828;2023-05-06T05:05:03;12.50;;;7.05;;
80313;SDS011;69628;47.516;18.828;2023-05-06T05:06:04;12.88;;;7.25;;
80313;SDS011;69628;47.516;18.828;2023-05-06T05:07:05;12.82;;;7.25;;
80313;SDS011;69628;47.516;18.828;2023-05-06T05:08:06;11.07;;;7.00;;
80313;SDS011;69628;47.516;18.828;2023-05-06T05:09:06;12.07;;;7.53;;
80313;SDS011;69628;47.516;18.828;2023-05-06T05:10:07;14.40;;;7.22;;
80313;SDS011;69628;47.516;18.828;2023-05-06T05:11:09;14.07;;;7.40;;
80313;SDS011;69628;47.516;18.828;2023-05-06T05:12:09;12.15;;;7.20;;
80313;SDS011;69628;47.516;18.828;2023-05-06T05:13:10;10.65;;;7.28;;
80313;SDS011;69628;47.516;18.828;2023-05-06T05:14:10;15.23;;;8.27;;
80313;SDS011;69628;47.516;18.828;2023-05-06T05:15:17;12.45;;;8.05;;
80313;SDS011;69628;47.516;18.828;2023-05-06T05:16:17;14.18;;;7.88;;
80313;SDS011;69628;47.516;18.828;2023-05-06T05:17:18;12.57;;;7.78;;
80313;SDS011;69628;47.516;18.828;2023-05-06T05:18:18;14.23;;;7.47;;
80313;SDS011;69628;47.516;18.828;2023-05-06T05:19:19;12.68;;;7.20;;
80313;SDS011;69628;47.516;18.828;2023-05-06T05:20:20;18.63;;;9.20;;
80313;SDS011;69628;47.516;18.828;2023-05-06T05:21:20;14.18;;;8.77;;
80313;SDS011;69628;47.516;18.828;2023-05-06T05:22:21;18.88;;;8.38;;
80313;SDS011;69628;47.516;18.828;2023-05-06T05:23:21;13.32;;;7.93;;
80313;SDS011;69628;47.516;18.828;2023-05-06T05:24:22;14.02;;;8.73;;
80313;SDS011;69628;47.516;18.828;2023-05-06T05:25:22;15.35;;;8.27;;
80313;SDS011;69628;47.516;18.828;2023-05-06T05:26:23;15.02;;;8.27;;
80313;SDS011;69628;47.516;18.828;2023-05-06T05:27:23;12.07;;;7.65;;
80313;SDS011;69628;47.516;18.828;2023-05-06T05:28:32;15.60;;;7.95;;
80313;SDS011;69628;47.516;18.828;2023-05-06T05:29:32;14.15;;;8.57;;
80313;SDS011;69628;47.516;18.828;2023-05-06T05:30:33;15.95;;;8.20;;
80313;SDS011;69628;47.516;18.828;2023-05-06T05:31:33;16.77;;;8.15;;
80313;SDS011;69628;47.516;18.828;2023-05-06T05:32:34;14.77;;;8.23;;
80313;SDS011;69628;47.516;18.828;2023-05-06T05:33:34;13.00;;;9.10;;
80313;SDS011;69628;47.516;18.828;2023-05-06T05:34:35;15.10;;;8.63;;
80313;SDS011;69628;47.516;18.828;2023-05-06T05:35:35;20.80;;;10.38;;
80313;SDS011;69628;47.516;18.828;2023-05-06T05:36:35;17.00;;;10.82;;
80313;SDS011;69628;47.516;18.828;2023-05-06T05:37:36;16.42;;;10.48;;
80313;SDS011;69628;47.516;18.828;2023-05-06T05:38:36;17.73;;;11.60;;
80313;SDS011;69628;47.516;18.828;2023-05-06T05:39:37;22.13;;;13.07;;
80313;SDS011;69628;47.516;18.828;2023-05-06T05:40:37;26.85;;;12.68;;
80313;SDS011;69628;47.516;18.828;2023-05-06T05:41:37;22.35;;;12.07;;
80313;SDS011;69628;47.516;18.828;2023-05-06T05:42:38;23.38;;;12.70;;
80313;SDS011;69628;47.516;18.828;2023-05-06T05:43:39;23.67;;;12.52;;
80313;SDS011;69628;47.516;18.828;2023-05-06T05:44:39;20.85;;;11.57;;
80313;SDS011;69628;47.516;18.828;2023-05-06T05:45:40;23.65;;;12.35;;
80313;SDS011;69628;47.516;18.828;2023-05-06T05:46:40;22.42;;;12.48;;
80313;SDS011;69628;47.516;18.828;2023-05-06T05:47:41;17.20;;;10.55;;
80313;SDS011;69628;47.516;18.828;2023-05-06T05:48:41;15.77;;;10.48;;
80313;SDS011;69628;47.516;18.828;2023-05-06T05:49:42;18.33;;;11.40;;
80313;SDS011;69628;47.516;18.828;2023-05-06T05:50:43;19.58;;;10.25;;
80313;SDS011;69628;47.516;18.828;2023-05-06T05:51:43;14.13;;;8.98;;
80313;SDS011;69628;47.516;18.828;2023-05-06T05:52:43;15.93;;;8.23;;
80313;SDS011;69628;47.516;18.828;2023-05-06T05:53:44;13.13;;;7.45;;
80313;SDS011;69628;47.516;18.828;2023-05-06T05:54:44;14.00;;;7.13;;
80313;SDS011;69628;47.516;18.828;2023-05-06T05:55:45;12.35;;;6.80;;
80313;SDS011;69628;47.516;18.828;2023-05-06T05:56:45;15.80;;;7.38;;
80313;SDS011;69628;47.516;18.828;2023-05-06T05:57:45;9.02;;;6.75;;
80313;SDS011;69628;47.516;18.828;2023-05-06T05:58:46;9.15;;;6.22;;
80313;SDS011;69628;47.516;18.828;2023-05-06T05:59:46;13.85;;;6.88;;
80313;SDS011;69628;47.516;18.828;2023-05-06T06:00:47;11.20;;;6.38;;
80313;SDS011;69628;47.516;18.828;2023-05-06T06:01:47;10.15;;;6.00;;
80313;SDS011;69628;47.516;18.828;2023-05-06T06:02:47;11.13;;;6.18;;
80313;SDS011;69628;47.516;18.828;2023-05-06T06:04:00;11.35;;;6.10;;
80313;SDS011;69628;47.516;18.828;2023-05-06T06:05:00;9.90;;;5.88;;
80313;SDS011;69628;47.516;18.828;2023-05-06T06:06:01;9.93;;;5.95;;
80313;SDS011;69628;47.516;18.828;2023-05-06T06:07:01;9.75;;;6.13;;
80313;SDS011;69628;47.516;18.828;2023-05-06T06:08:02;7.25;;;5.28;;
80313;SDS011;69628;47.516;18.828;2023-05-06T06:09:02;9.25;;;5.78;;
80313;SDS011;69628;47.516;18.828;2023-05-06T06:10:03;10.57;;;5.93;;